Pagrindinis puslapis
METAR-TAF:

METAR-TAF

Oro uostai :

Tingo María, Peru

platuma: 09-17-15S, ilguma: 076-00-18W, Aukštis: 654 m

Dabartinis oras

Ataskaita buvo paskelbta 54 minutes, ne 14:00 UTC
Vėjas 3 kt iš Šiaurės
Temperatūra 24°C
Drėgmė 78%
Slėgis 1015 hPa
Matomumas: 8000 m
Mažai debesys ne aukštis 3000 ft
Su prošvaistėmis ne aukštis 12000 ft

METAR: SPGM 201400Z 01003KT 8000 FEW030 BKN120 24/20 Q1015 RMK HORIZONTE CON CALIMA PP000

Laikas: 09:54 (14:54 UTC)

Prognozė

Ataskaita buvo paskelbta 4 valandos ir 24 minutes, ne 10:30 UTC
Prognozė galioja nuo 20 metu 12 UTC su 21 metu 12 UTC
Vėjas 5 kt iš Šiaurės/Šiaurės Rytų
Matomumas: 8000 m
Mažai debesys ne aukštis 2000 ft
Su prošvaistėmis ne aukštis 8000 ft
Laikinai
nuo 20 metu 12 UTC su 20 metu 14 UTC
Matomumas: 4000 m
Su prošvaistėmis ne aukštis 2000 ft
Su prošvaistėmis ne aukštis 8000 ft
rūkana
Laikinai
nuo 20 metu 17 UTC su 20 metu 20 UTC
lietus

TAF: SPGM 201030Z 2012/2112 02005KT 8000 FEW020 BKN080 TX29/2019Z TN21/2111Z TEMPO 2012/2014 4000 BR BKN020 BKN080 TEMPO 2017/2020 RA

Orai ataskaitas ir orų prognozės (METAR, TAF).

turimą stotys yra geltonos ir raudonos taškus žemėlapyje.

Perkelti pele per norėdami pamatyti stoties vardą.

Tada spustelėkite, norėdami matyti oro stebėjimo ir prognozės.

Norėdami pakeisti žemėlapį: spustelėkite ant žalios mygtukų su juodo kryžiaus žemyn,; žalią mygtuką su brūkšneliu, jei norite nutolinti; arba žalių rodyklių gretimoms žemėlapius.


METAR-TAF: